createdAt,value
2018-06-03T00:02:26.379Z,28.70
2018-06-03T00:04:53.717Z,29.40
2018-06-03T00:07:21.198Z,29.50
2018-06-03T00:09:48.486Z,29.20
2018-06-03T00:12:15.783Z,30.00
2018-06-03T00:14:43.214Z,30.00
2018-06-03T00:17:10.533Z,29.50
2018-06-03T00:19:37.988Z,31.30
2018-06-03T00:22:06.978Z,31.40
2018-06-03T00:24:34.293Z,33.50
2018-06-03T00:27:01.588Z,32.20
2018-06-03T00:29:28.963Z,33.30
2018-06-03T00:31:56.370Z,34.40
2018-06-03T00:34:23.906Z,34.90
2018-06-03T00:36:51.205Z,35.40
2018-06-03T00:39:19.496Z,35.80
2018-06-03T00:41:46.869Z,37.10
2018-06-03T00:44:14.254Z,37.70
2018-06-03T00:46:41.652Z,39.80
2018-06-03T00:49:09.139Z,39.20
2018-06-03T00:51:41.367Z,39.30
2018-06-03T00:54:08.684Z,40.20
2018-06-03T00:56:47.602Z,39.70
2018-06-03T00:59:15.392Z,39.70
2018-06-03T01:01:42.725Z,41.20
2018-06-03T01:04:10.069Z,40.80
2018-06-03T01:06:37.446Z,41.00
2018-06-03T01:09:05.396Z,43.80
2018-06-03T01:11:32.752Z,43.20
2018-06-03T01:14:00.390Z,42.20
2018-06-03T01:16:27.867Z,41.70
2018-06-03T01:18:55.328Z,42.20
2018-06-03T01:21:22.646Z,44.40
2018-06-03T01:23:49.987Z,44.40
2018-06-03T01:26:17.466Z,44.40
2018-06-03T01:28:44.847Z,44.80
2018-06-03T01:31:12.180Z,45.90
2018-06-03T01:33:39.566Z,45.50
2018-06-03T01:36:06.903Z,46.20
2018-06-03T01:38:34.447Z,46.30
2018-06-03T01:41:01.791Z,45.90
2018-06-03T01:43:29.152Z,45.70
2018-06-03T01:45:56.580Z,45.60
2018-06-03T01:48:23.936Z,45.10
2018-06-03T01:50:51.352Z,44.60
2018-06-03T01:53:18.702Z,44.20
2018-06-03T01:55:46.095Z,47.30
2018-06-03T01:58:13.478Z,46.20
2018-06-03T02:00:40.972Z,47.40
2018-06-03T02:03:08.346Z,47.00
2018-06-03T02:08:03.125Z,44.90
2018-06-03T02:10:30.603Z,45.00
2018-06-03T02:12:57.945Z,45.60
2018-06-03T02:15:25.212Z,45.30
2018-06-03T02:17:52.485Z,46.10
2018-06-03T02:20:19.814Z,45.10
2018-06-03T02:22:47.239Z,46.40
2018-06-03T02:25:15.000Z,46.30
2018-06-03T02:27:42.276Z,46.30
2018-06-03T02:30:09.575Z,45.70
2018-06-03T02:32:36.979Z,46.30
2018-06-03T02:35:04.447Z,47.10
2018-06-03T02:37:31.747Z,46.80
2018-06-03T02:39:59.058Z,47.20
2018-06-03T02:42:26.393Z,47.70
2018-06-03T02:44:53.691Z,47.80
2018-06-03T02:47:21.017Z,48.40
2018-06-03T02:49:48.311Z,48.30
2018-06-03T02:52:15.661Z,48.10
2018-06-03T02:54:42.947Z,48.90
2018-06-03T02:57:10.362Z,47.70
2018-06-03T02:59:37.688Z,48.30
2018-06-03T03:02:06.394Z,48.40
2018-06-03T03:04:33.817Z,48.30
2018-06-03T03:07:01.156Z,48.40
2018-06-03T03:09:28.517Z,50.60
2018-06-03T03:11:56.028Z,49.30
2018-06-03T03:14:23.403Z,48.80
2018-06-03T03:16:50.757Z,49.20
2018-06-03T03:19:18.086Z,48.20
2018-06-03T03:21:45.838Z,48.30
2018-06-03T03:24:13.172Z,48.40
2018-06-03T03:26:40.891Z,48.10
2018-06-03T03:29:08.344Z,52.00
2018-06-03T03:31:36.035Z,50.30
2018-06-03T03:36:30.779Z,48.40
2018-06-03T03:38:58.184Z,51.60
2018-06-03T03:41:25.530Z,50.80
2018-06-03T03:43:52.891Z,51.90
2018-06-03T03:46:20.253Z,51.10
2018-06-03T03:48:47.691Z,50.90
2018-06-03T03:51:15.057Z,51.80
2018-06-03T03:53:42.492Z,51.00
2018-06-03T03:56:09.855Z,50.60
2018-06-03T03:58:37.271Z,51.40
2018-06-03T04:01:04.662Z,51.10
2018-06-03T04:03:32.034Z,51.70
2018-06-03T04:05:59.391Z,51.80
2018-06-03T04:08:26.797Z,50.50
2018-06-03T04:10:54.181Z,54.70
2018-06-03T04:13:21.526Z,55.10
2018-06-03T04:15:48.933Z,54.50
2018-06-03T04:18:16.270Z,55.30
2018-06-03T04:20:43.878Z,53.80
2018-06-03T04:23:11.218Z,53.00
2018-06-03T04:25:38.538Z,53.40
2018-06-03T04:28:05.878Z,52.90
2018-06-03T04:30:33.368Z,54.70
2018-06-03T04:33:00.793Z,54.30
2018-06-03T04:35:28.546Z,55.50
2018-06-03T04:37:55.900Z,58.00
2018-06-03T04:40:23.222Z,56.10
2018-06-03T04:42:50.934Z,54.00
2018-06-03T04:45:18.299Z,57.70
2018-06-03T04:47:45.585Z,60.20
2018-06-03T04:50:13.219Z,58.30
2018-06-03T04:52:40.539Z,57.40
2018-06-03T04:55:08.227Z,57.50
2018-06-03T04:57:35.877Z,59.80
2018-06-03T05:00:03.284Z,62.90
2018-06-03T05:02:30.612Z,60.20
2018-06-03T05:04:58.007Z,60.00
2018-06-03T05:07:25.318Z,60.10
2018-06-03T05:09:52.638Z,55.30
2018-06-03T05:12:20.022Z,55.10
2018-06-03T05:14:48.945Z,55.90
2018-06-03T05:17:16.308Z,56.30
2018-06-03T05:19:43.991Z,52.40
2018-06-03T05:22:11.328Z,52.10
2018-06-03T05:24:38.785Z,52.60
2018-06-03T05:27:06.230Z,52.40
2018-06-03T05:29:33.651Z,49.20
2018-06-03T05:32:01.019Z,51.00
2018-06-03T05:34:28.393Z,50.50
2018-06-03T05:36:55.743Z,48.00
2018-06-03T05:39:23.060Z,44.80
2018-06-03T05:41:50.486Z,42.50
2018-06-03T05:44:17.802Z,40.70
2018-06-03T05:46:45.140Z,40.00
2018-06-03T05:49:12.655Z,40.50
2018-06-03T05:51:40.035Z,40.70
2018-06-03T05:54:07.462Z,40.70
2018-06-03T05:56:34.805Z,41.20
2018-06-03T05:59:02.159Z,41.70
2018-06-03T06:01:29.526Z,41.90
2018-06-03T06:03:56.987Z,40.60
2018-06-03T06:06:24.323Z,40.20
2018-06-03T06:08:51.575Z,40.60
2018-06-03T06:11:18.884Z,40.60
2018-06-03T06:13:46.250Z,44.10
2018-06-03T06:16:13.527Z,42.00
2018-06-03T06:18:41.029Z,41.50
2018-06-03T06:21:08.391Z,42.40
2018-06-03T06:23:35.713Z,41.70
2018-06-03T06:26:03.207Z,40.50
2018-06-03T06:28:30.502Z,40.50
2018-06-03T06:30:57.844Z,40.50
2018-06-03T06:33:25.198Z,41.50
2018-06-03T06:35:52.567Z,42.50
2018-06-03T06:38:19.858Z,41.90
2018-06-03T06:40:47.195Z,42.90
2018-06-03T06:43:14.529Z,42.50
2018-06-03T06:45:42.123Z,40.60
2018-06-03T06:48:09.429Z,40.00
2018-06-03T06:50:36.857Z,37.90
2018-06-03T06:53:04.144Z,38.30
2018-06-03T06:55:31.509Z,37.60
2018-06-03T06:57:58.791Z,39.90
2018-06-03T07:00:26.168Z,40.60
2018-06-03T07:02:53.581Z,38.20
2018-06-03T07:07:48.415Z,39.50
2018-06-03T07:10:18.095Z,38.20
2018-06-03T07:12:45.395Z,39.20
2018-06-03T07:15:12.927Z,39.60
2018-06-03T07:17:40.332Z,39.70
2018-06-03T07:20:07.756Z,39.10
2018-06-03T07:22:35.079Z,40.70
2018-06-03T07:25:03.555Z,40.50
2018-06-03T07:27:30.885Z,39.10
2018-06-03T07:29:58.540Z,38.10
2018-06-03T07:32:25.899Z,38.80
2018-06-03T07:34:53.351Z,38.80
2018-06-03T07:37:20.667Z,37.80
2018-06-03T07:39:47.992Z,37.20
2018-06-03T07:42:15.346Z,36.70
2018-06-03T07:44:42.703Z,36.00
2018-06-03T07:47:11.164Z,34.50
2018-06-03T07:49:38.469Z,33.40
2018-06-03T07:52:05.830Z,32.80
2018-06-03T07:54:33.611Z,29.60
2018-06-03T07:57:01.123Z,29.20
2018-06-03T07:59:28.956Z,29.20
2018-06-03T08:01:56.513Z,28.80
2018-06-03T08:04:24.195Z,29.30
2018-06-03T08:06:51.805Z,28.90
2018-06-03T08:09:19.425Z,26.50
2018-06-03T08:11:48.672Z,25.00
2018-06-03T08:14:16.104Z,16.80
2018-06-03T08:16:43.420Z,9.20
2018-06-03T08:19:10.742Z,1.90
2018-06-03T08:21:38.303Z,1.00
2018-06-03T08:24:05.637Z,1.00
2018-06-03T08:26:33.243Z,1.00
2018-06-03T08:29:00.631Z,1.00
2018-06-03T08:31:27.951Z,1.00
2018-06-03T08:33:55.465Z,1.00
2018-06-03T08:36:22.877Z,1.00
2018-06-03T08:38:50.459Z,1.00
2018-06-03T08:41:18.017Z,1.00
2018-06-03T08:43:45.664Z,1.10
2018-06-03T08:46:14.155Z,3.10
2018-06-03T08:48:41.792Z,4.80
2018-06-03T08:51:09.404Z,3.90
2018-06-03T08:53:37.047Z,4.50
2018-06-03T08:56:04.608Z,3.60
2018-06-03T08:58:32.211Z,5.70
2018-06-03T09:00:59.761Z,6.60
2018-06-03T09:03:28.640Z,4.60
2018-06-03T09:05:56.393Z,4.10
2018-06-03T09:08:24.515Z,3.80
2018-06-03T09:10:52.060Z,4.90
2018-06-03T09:13:19.987Z,5.90
2018-06-03T09:15:47.549Z,7.60
2018-06-03T09:18:14.995Z,7.80
2018-06-03T09:20:42.502Z,8.20
2018-06-03T09:23:09.992Z,7.90
2018-06-03T09:25:37.757Z,9.10
2018-06-03T09:28:05.299Z,10.00
2018-06-03T09:30:32.571Z,10.50
2018-06-03T09:33:00.070Z,10.50
2018-06-03T09:35:27.406Z,10.50
2018-06-03T09:37:54.714Z,9.20
2018-06-03T09:40:22.036Z,10.60
2018-06-03T09:42:49.563Z,10.60
2018-06-03T09:45:16.966Z,10.40
2018-06-03T09:47:44.328Z,10.40
2018-06-03T09:50:12.449Z,10.70
2018-06-03T09:52:39.949Z,11.00
2018-06-03T09:55:07.226Z,11.40
2018-06-03T09:57:34.731Z,10.30
2018-06-03T10:00:02.333Z,10.30
2018-06-03T10:02:29.587Z,10.20
2018-06-03T10:04:56.932Z,11.40
2018-06-03T10:07:24.391Z,11.60
2018-06-03T10:09:52.799Z,10.40
2018-06-03T10:12:20.157Z,11.00
2018-06-03T10:14:47.479Z,9.90
2018-06-03T10:17:14.808Z,10.70
2018-06-03T10:19:43.453Z,10.20
2018-06-03T10:22:10.779Z,8.60
2018-06-03T10:24:38.229Z,10.00
2018-06-03T10:27:05.628Z,9.10
2018-06-03T10:29:32.976Z,10.30
2018-06-03T10:32:00.372Z,9.70
2018-06-03T10:34:27.738Z,8.60
2018-06-03T10:36:55.133Z,7.60
2018-06-03T10:39:22.468Z,8.60
2018-06-03T10:41:49.840Z,7.10
2018-06-03T10:44:17.222Z,8.10
2018-06-03T10:46:44.565Z,6.90
2018-06-03T10:49:12.307Z,8.20
2018-06-03T10:51:39.838Z,8.10
2018-06-03T10:54:07.214Z,9.00
2018-06-03T10:56:34.567Z,8.60
2018-06-03T10:59:02.490Z,6.90
2018-06-03T11:01:30.104Z,7.10
2018-06-03T11:03:57.648Z,8.10
2018-06-03T11:06:25.160Z,7.70
2018-06-03T11:08:52.774Z,7.60
2018-06-03T11:11:20.391Z,6.50
2018-06-03T11:13:48.122Z,6.50
2018-06-03T11:16:15.575Z,5.70
2018-06-03T11:18:43.078Z,5.80
2018-06-03T11:21:11.230Z,5.90
2018-06-03T11:23:38.576Z,4.80
2018-06-03T11:26:05.872Z,6.20
2018-06-03T11:28:39.364Z,4.00
2018-06-03T11:31:06.647Z,3.20
2018-06-03T11:33:33.960Z,2.20
2018-06-03T11:36:01.265Z,4.10
2018-06-03T11:38:28.566Z,3.60
2018-06-03T11:41:01.059Z,3.40
2018-06-03T11:43:28.327Z,3.00
2018-06-03T11:45:55.623Z,3.00
2018-06-03T11:48:22.923Z,1.70
2018-06-03T11:50:50.266Z,1.00
2018-06-03T11:53:17.573Z,2.90
2018-06-03T11:55:46.380Z,1.40
2018-06-03T11:58:53.517Z,1.00
2018-06-03T12:01:21.259Z,1.00
2018-06-03T12:03:48.771Z,1.00
2018-06-03T12:06:16.271Z,1.00
2018-06-03T12:08:45.258Z,1.70
2018-06-03T12:11:12.819Z,1.00
2018-06-03T12:13:40.343Z,1.00
2018-06-03T12:16:07.838Z,1.00
2018-06-03T12:18:35.354Z,1.00
2018-06-03T12:21:02.856Z,1.00
2018-06-03T12:23:33.684Z,1.40
2018-06-03T12:26:01.018Z,1.00
2018-06-03T12:28:28.452Z,1.00
2018-06-03T12:30:55.842Z,1.00
2018-06-03T12:33:41.658Z,1.00
2018-06-03T12:36:09.275Z,1.00
2018-06-03T12:38:36.940Z,1.00
2018-06-03T12:41:04.512Z,1.00
2018-06-03T12:43:32.070Z,1.00
2018-06-03T12:48:31.425Z,1.00
2018-06-03T12:50:58.954Z,1.00
2018-06-03T12:53:26.485Z,1.00
2018-06-03T12:55:54.111Z,1.00
2018-06-03T12:58:21.459Z,1.00
2018-06-03T13:00:48.958Z,1.00
2018-06-03T13:03:18.467Z,1.00
2018-06-03T13:05:45.976Z,1.00
2018-06-03T13:08:13.550Z,1.00
2018-06-03T13:10:41.136Z,1.00
2018-06-03T13:13:08.670Z,1.00
2018-06-03T13:15:36.076Z,1.00
2018-06-03T13:18:06.632Z,1.00
2018-06-03T13:20:34.043Z,1.00
2018-06-03T13:23:01.672Z,1.00
2018-06-03T13:25:29.211Z,1.00
2018-06-03T13:27:56.812Z,1.00
2018-06-03T13:30:24.375Z,1.00
2018-06-03T13:35:24.327Z,1.00
2018-06-03T13:37:51.661Z,1.00
2018-06-03T13:40:18.986Z,1.00
2018-06-03T13:42:46.350Z,1.00
2018-06-03T13:45:13.694Z,1.00
2018-06-03T13:47:45.780Z,1.00
2018-06-03T13:50:13.131Z,1.00
2018-06-03T13:52:40.560Z,1.00
2018-06-03T13:57:35.323Z,1.00
2018-06-03T14:00:02.827Z,1.00
2018-06-03T14:02:35.086Z,1.00
2018-06-03T14:05:02.478Z,1.00
2018-06-03T14:07:29.887Z,1.00
2018-06-03T14:09:57.247Z,1.00
2018-06-03T14:12:24.571Z,1.00
2018-06-03T14:14:51.941Z,1.00
2018-06-03T14:19:48.001Z,1.00
2018-06-03T14:22:15.351Z,1.00
2018-06-03T14:24:42.811Z,1.00
2018-06-03T14:27:10.145Z,1.00
2018-06-03T14:29:37.708Z,1.00
2018-06-03T14:32:07.403Z,1.00
2018-06-03T14:34:34.755Z,1.00
2018-06-03T14:37:02.070Z,1.00
2018-06-03T14:39:29.430Z,1.00
2018-06-03T14:41:56.788Z,1.00
2018-06-03T14:44:29.380Z,1.00
2018-06-03T14:46:56.731Z,1.00
2018-06-03T14:49:24.049Z,1.00
2018-06-03T14:51:51.737Z,1.00
2018-06-03T14:54:19.072Z,1.00
2018-06-03T14:56:46.383Z,1.00
2018-06-03T14:59:16.506Z,1.00
2018-06-03T15:01:43.955Z,1.00
2018-06-03T15:04:11.331Z,1.00
2018-06-03T15:06:38.752Z,1.00
2018-06-03T15:09:06.988Z,1.00
2018-06-03T15:11:35.050Z,1.00
2018-06-03T15:14:04.216Z,1.00
2018-06-03T15:16:31.742Z,1.00
2018-06-03T15:18:59.324Z,1.00
2018-06-03T15:21:26.835Z,1.00
2018-06-03T15:23:54.581Z,1.00
2018-06-03T15:26:26.224Z,1.00
2018-06-03T15:28:53.622Z,1.00
2018-06-03T15:31:20.956Z,1.00
2018-06-03T15:33:48.537Z,1.00
2018-06-03T15:36:15.818Z,1.00
2018-06-03T15:38:43.147Z,1.00
2018-06-03T15:41:10.689Z,1.00
2018-06-03T15:43:39.090Z,1.00
2018-06-03T15:46:06.703Z,1.00
2018-06-03T15:48:34.375Z,1.00
2018-06-03T15:51:01.993Z,1.00
2018-06-03T15:53:29.518Z,1.00
2018-06-03T15:56:01.276Z,1.00
2018-06-03T15:58:28.709Z,1.00
2018-06-03T16:00:56.035Z,1.00
2018-06-03T16:03:23.396Z,1.00
2018-06-03T16:05:50.759Z,1.00
2018-06-03T16:08:18.183Z,1.00
2018-06-03T16:10:45.587Z,1.00
2018-06-03T16:13:16.803Z,1.00
2018-06-03T16:15:44.142Z,1.00
2018-06-03T16:18:11.547Z,1.00
2018-06-03T16:20:38.924Z,1.00
2018-06-03T16:23:06.295Z,1.00
2018-06-03T16:25:33.712Z,1.00
2018-06-03T16:28:04.909Z,1.00
2018-06-03T16:30:33.616Z,1.00
2018-06-03T16:33:00.958Z,1.00
2018-06-03T16:35:28.333Z,1.00
2018-06-03T16:37:55.741Z,1.00
2018-06-03T16:40:23.116Z,1.00
2018-06-03T16:42:57.495Z,1.00
2018-06-03T16:45:24.836Z,1.00
2018-06-03T16:47:52.189Z,1.00
2018-06-03T16:50:19.535Z,1.00
2018-06-03T16:52:46.980Z,1.00
2018-06-03T16:55:14.406Z,1.00
2018-06-03T16:57:46.189Z,1.00
2018-06-03T17:00:13.579Z,1.00
2018-06-03T17:02:41.012Z,1.00
2018-06-03T17:05:08.387Z,1.00
2018-06-03T17:07:35.755Z,1.00
2018-06-03T17:10:08.689Z,1.00
2018-06-03T17:12:36.053Z,1.00
2018-06-03T17:15:03.562Z,1.00
2018-06-03T17:17:30.964Z,1.00
2018-06-03T17:19:58.331Z,1.00
2018-06-03T17:22:27.762Z,1.00
2018-06-03T17:25:02.518Z,1.00
2018-06-03T17:27:29.897Z,1.00
2018-06-03T17:29:57.218Z,1.00
2018-06-03T17:32:24.585Z,1.00
2018-06-03T17:34:56.450Z,1.00
2018-06-03T17:37:23.819Z,1.00
2018-06-03T17:39:51.315Z,1.00
2018-06-03T17:42:18.669Z,1.00
2018-06-03T17:44:46.039Z,1.00
2018-06-03T17:47:13.379Z,1.00
2018-06-03T17:49:42.770Z,1.00
2018-06-03T17:52:12.915Z,1.00
2018-06-03T17:54:50.603Z,1.00
2018-06-03T17:57:24.154Z,1.00
2018-06-03T17:59:51.558Z,1.00
2018-06-03T18:02:19.008Z,1.00
2018-06-03T18:04:46.365Z,1.00
2018-06-03T18:07:13.799Z,1.00
2018-06-03T18:09:46.012Z,1.00
2018-06-03T18:12:13.366Z,1.00
2018-06-03T18:14:41.808Z,1.00
2018-06-03T18:17:09.353Z,1.00
2018-06-03T18:19:36.845Z,1.00
2018-06-03T18:22:09.316Z,1.00
2018-06-03T18:24:36.770Z,1.00
2018-06-03T18:27:04.299Z,1.00
2018-06-03T18:29:31.697Z,1.00
2018-06-03T18:31:59.099Z,1.00
2018-06-03T18:34:26.472Z,1.00
2018-06-03T18:37:00.580Z,1.00
2018-06-03T18:39:27.934Z,1.00
2018-06-03T18:41:56.814Z,1.00
2018-06-03T18:44:34.895Z,1.00
2018-06-03T18:47:07.152Z,1.00
2018-06-03T18:49:37.443Z,1.30
2018-06-03T18:52:05.247Z,1.00
2018-06-03T18:57:07.195Z,1.00
2018-06-03T18:59:37.292Z,1.00
2018-06-03T19:02:18.538Z,1.00
2018-06-03T19:04:47.796Z,1.30
2018-06-03T19:07:15.420Z,1.10
2018-06-03T19:09:43.183Z,2.20
2018-06-03T19:14:38.586Z,3.50
2018-06-03T19:17:06.297Z,2.60
2018-06-03T19:19:33.827Z,3.80
2018-06-03T19:22:01.426Z,3.30
2018-06-03T19:24:28.926Z,4.00
2018-06-03T19:26:56.505Z,3.70
2018-06-03T19:29:24.123Z,4.60
2018-06-03T19:31:51.733Z,4.80
2018-06-03T19:34:19.364Z,4.40
2018-06-03T19:36:46.939Z,4.70
2018-06-03T19:39:14.475Z,4.50
2018-06-03T19:41:42.055Z,5.00
2018-06-03T19:44:09.610Z,5.70
2018-06-03T19:46:37.395Z,6.00
2018-06-03T19:49:05.096Z,5.80
2018-06-03T19:51:32.709Z,6.30
2018-06-03T19:54:00.223Z,6.50
2018-06-03T19:56:27.860Z,6.60
2018-06-03T19:58:55.715Z,6.70
2018-06-03T20:01:23.382Z,6.80
2018-06-03T20:03:51.239Z,7.70
2018-06-03T20:06:18.921Z,7.60
2018-06-03T20:08:46.443Z,7.60
2018-06-03T20:11:28.524Z,8.00
2018-06-03T20:14:12.345Z,7.90
2018-06-03T20:19:13.555Z,8.40
2018-06-03T20:21:41.565Z,9.50
2018-06-03T20:24:09.506Z,9.50
2018-06-03T20:26:37.522Z,9.40
2018-06-03T20:29:05.178Z,9.40
2018-06-03T20:31:32.715Z,9.30
2018-06-03T20:34:00.311Z,10.40
2018-06-03T20:36:27.859Z,10.20
2018-06-03T20:38:55.474Z,9.60
2018-06-03T20:41:23.081Z,10.20
2018-06-03T20:43:50.847Z,9.80
2018-06-03T20:46:18.537Z,9.50
2018-06-03T20:48:46.120Z,10.40
2018-06-03T20:51:13.659Z,10.70
2018-06-03T20:53:41.259Z,11.20
2018-06-03T20:56:08.920Z,11.50
2018-06-03T20:58:36.602Z,11.90
2018-06-03T21:01:04.168Z,12.10
2018-06-03T21:03:31.688Z,11.80
2018-06-03T21:06:00.018Z,11.80
2018-06-03T21:08:27.609Z,12.10
2018-06-03T21:10:55.113Z,12.20
2018-06-03T21:13:23.409Z,12.90
2018-06-03T21:15:50.939Z,14.00
2018-06-03T21:18:18.489Z,13.50
2018-06-03T21:20:46.120Z,13.20
2018-06-03T21:23:13.807Z,13.20
2018-06-03T21:25:41.348Z,13.70
2018-06-03T21:28:08.876Z,14.40
2018-06-03T21:30:36.591Z,14.00
2018-06-03T21:33:04.148Z,15.40
2018-06-03T21:35:31.639Z,15.20
2018-06-03T21:37:59.275Z,14.90
2018-06-03T21:40:26.888Z,15.00
2018-06-03T21:42:54.560Z,15.20
2018-06-03T21:45:22.215Z,16.00
2018-06-03T21:47:50.056Z,15.30
2018-06-03T21:50:17.682Z,15.50
2018-06-03T21:52:45.251Z,15.60
2018-06-03T21:55:12.846Z,16.20
2018-06-03T21:57:40.519Z,17.30
2018-06-03T22:00:08.058Z,16.70
2018-06-03T22:02:35.562Z,17.90
2018-06-03T22:05:03.124Z,17.10
2018-06-03T22:07:36.447Z,17.20
2018-06-03T22:10:04.284Z,17.60
2018-06-03T22:12:42.117Z,17.10
2018-06-03T22:15:15.799Z,17.60
2018-06-03T22:17:43.107Z,18.00
2018-06-03T22:20:10.419Z,19.90
2018-06-03T22:25:05.376Z,18.40
2018-06-03T22:27:32.858Z,18.50
2018-06-03T22:30:00.334Z,20.40
2018-06-03T22:32:27.760Z,20.10
2018-06-03T22:34:55.103Z,19.40
2018-06-03T22:37:22.438Z,19.10
2018-06-03T22:39:49.757Z,20.70
2018-06-03T22:42:17.076Z,20.30
2018-06-03T22:44:44.384Z,20.10
2018-06-03T22:47:11.720Z,20.10
2018-06-03T22:49:44.086Z,20.10
2018-06-03T22:52:11.648Z,21.00
2018-06-03T22:54:39.016Z,21.00
2018-06-03T22:57:43.818Z,21.80
2018-06-03T23:00:22.905Z,22.80
2018-06-03T23:02:56.110Z,23.20
2018-06-03T23:05:23.696Z,22.30
2018-06-03T23:07:51.402Z,23.80
2018-06-03T23:10:19.086Z,24.00
2018-06-03T23:12:46.631Z,24.60
2018-06-03T23:15:14.218Z,23.80
2018-06-03T23:17:41.846Z,23.90
2018-06-03T23:20:09.352Z,25.30
2018-06-03T23:22:38.336Z,24.50
2018-06-03T23:25:05.921Z,24.40
2018-06-03T23:27:33.584Z,23.90
2018-06-03T23:30:01.120Z,23.60
2018-06-03T23:32:28.678Z,23.50
2018-06-03T23:34:56.198Z,26.40
2018-06-03T23:37:23.858Z,26.80
2018-06-03T23:39:51.893Z,24.60
2018-06-03T23:42:19.405Z,26.30
2018-06-03T23:44:46.950Z,27.10
2018-06-03T23:47:14.473Z,24.80
2018-06-03T23:49:42.049Z,25.40
2018-06-03T23:52:09.631Z,24.50
2018-06-03T23:54:37.146Z,26.90
2018-06-03T23:57:04.704Z,26.60
2018-06-03T23:59:32.439Z,27.40
